Time;durP1;ratioP1;P1;durP2;ratioP2;P2;SDS_P1;SDS_P2;PMS_P1;PMS_P2;Temp;Humidity;BMP_temperature;BMP_pressure;BME280_temperature;BME280_humidity;BME280_pressure;Samples;Min_cycle;Max_cycle;Signal;HPM_P1;HPM_P2
2022/08/24 00:01:52;;;;;;;4.20;3.80;;;22.30;70.40;;;;;;6131093;23;20223;-86
2022/08/24 00:04:18;;;;;;;4.53;4.05;;;22.30;70.30;;;;;;6130868;23;20136;-85
2022/08/24 00:06:44;;;;;;;3.75;3.45;;;22.30;70.40;;;;;;6106498;23;20183;-86
2022/08/24 00:09:09;;;;;;;4.07;3.67;;;22.30;70.40;;;;;;6106306;23;20147;-86
2022/08/24 00:11:35;;;;;;;4.20;3.80;;;22.30;70.30;;;;;;6130833;23;20142;-85
2022/08/24 00:14:01;;;;;;;4.00;3.60;;;22.30;70.40;;;;;;6157244;23;20135;-86
2022/08/24 00:16:26;;;;;;;4.38;3.97;;;22.40;70.30;;;;;;6106719;23;20222;-86
2022/08/24 00:18:52;;;;;;;4.72;3.95;;;22.30;70.30;;;;;;6082475;23;20235;-86
2022/08/24 00:21:20;;;;;;;3.88;3.50;;;22.30;70.30;;;;;;6106274;23;20148;-86
2022/08/24 00:23:48;;;;;;;4.28;3.88;;;22.30;70.30;;;;;;6081925;23;20294;-86
2022/08/24 00:26:14;;;;;;;4.43;4.03;;;22.30;70.30;;;;;;6081211;23;20166;-86
2022/08/24 00:28:42;;;;;;;4.35;3.95;;;22.30;70.30;;;;;;6082566;23;20147;-86
2022/08/24 00:31:07;;;;;;;4.47;3.78;;;22.30;70.30;;;;;;6081573;23;20182;-86
2022/08/24 00:33:33;;;;;;;4.00;3.60;;;22.30;70.30;;;;;;6106013;23;20139;-86
2022/08/24 00:35:59;;;;;;;3.88;3.58;;;22.30;70.30;;;;;;6130645;23;20135;-86
2022/08/24 00:38:24;;;;;;;4.15;3.75;;;22.30;70.30;;;;;;6082628;23;20147;-86
2022/08/24 00:40:50;;;;;;;4.22;3.83;;;22.30;70.30;;;;;;6130566;23;20571;-86
2022/08/24 00:43:19;;;;;;;4.40;4.00;;;22.30;70.30;;;;;;6130768;23;20136;-85
2022/08/24 00:45:49;;;;;;;3.65;3.35;;;22.30;70.30;;;;;;6130462;23;20179;-86
2022/08/24 00:48:19;;;;;;;4.00;3.67;;;22.30;70.30;;;;;;6130543;23;20179;-86
2022/08/24 00:50:48;;;;;;;3.80;3.50;;;22.30;70.30;;;;;;6130524;23;20151;-86
2022/08/24 00:53:19;;;;;;;4.13;3.72;;;22.30;70.20;;;;;;6106155;23;20151;-86
2022/08/24 00:55:49;;;;;;;4.03;3.63;;;22.30;70.30;;;;;;6130994;23;20155;-86
2022/08/24 00:58:21;;;;;;;3.78;3.47;;;22.30;70.20;;;;;;6130937;23;20147;-86
2022/08/24 01:00:50;;;;;;;4.30;3.90;;;22.30;70.20;;;;;;6130794;23;20631;-86
2022/08/24 01:03:15;;;;;;;4.03;3.60;;;22.30;70.20;;;;;;6130418;23;20136;-86
2022/08/24 01:05:41;;;;;;;3.95;3.65;;;22.30;71.00;;;;;;6130363;23;20140;-85
2022/08/24 01:08:10;;;;;;;4.35;3.95;;;22.30;70.20;;;;;;6130425;23;20163;-86
2022/08/24 01:10:42;;;;;;;3.65;3.35;;;22.30;70.20;;;;;;6034031;23;20209;-86
2022/08/24 01:13:10;;;;;;;4.10;3.72;;;22.30;70.20;;;;;;6035159;23;20162;-85
2022/08/24 01:15:40;;;;;;;4.30;3.90;;;22.30;70.20;;;;;;6056945;23;20159;-85
2022/08/24 01:21:00;;;;;;;4.18;3.78;;;22.30;70.20;;;;;;6073125;23;20151;-86
2022/08/24 01:23:46;;;;;;;4.50;4.10;;;22.30;70.20;;;;;;6058894;23;20167;-85
2022/08/24 01:26:17;;;;;;;4.20;3.80;;;22.30;70.20;;;;;;6089259;23;20239;-86
2022/08/24 01:28:44;;;;;;;4.20;3.80;;;22.30;70.20;;;;;;6130376;23;20131;-86
2022/08/24 01:31:11;;;;;;;3.65;3.35;;;22.30;70.20;;;;;;6130135;23;20560;-86
2022/08/24 01:33:37;;;;;;;4.10;3.70;;;22.30;70.10;;;;;;6105942;23;20159;-86
2022/08/24 01:36:27;;;;;;;4.00;3.70;;;22.30;70.20;;;;;;6131030;23;20151;-86
2022/08/24 01:38:53;;;;;;;3.92;3.53;;;22.30;70.10;;;;;;6132999;23;20136;-86
2022/08/24 01:41:19;;;;;;;4.00;3.60;;;22.30;70.20;;;;;;6130108;23;20223;-86
2022/08/24 01:43:44;;;;;;;4.25;3.85;;;22.30;70.10;;;;;;6130588;23;20162;-85
2022/08/24 01:46:10;;;;;;;3.70;3.40;;;22.30;70.10;;;;;;6166266;23;20191;-86
2022/08/24 01:48:36;;;;;;;4.00;3.67;;;22.30;70.10;;;;;;6159986;23;20178;-86
2022/08/24 01:51:01;;;;;;;4.65;3.88;;;22.30;70.10;;;;;;6135697;23;20150;-86
2022/08/24 01:53:28;;;;;;;4.10;3.70;;;22.30;70.10;;;;;;6159619;23;20131;-86
2022/08/24 01:55:54;;;;;;;3.92;3.55;;;22.30;70.10;;;;;;6160344;23;20151;-85
2022/08/24 01:58:20;;;;;;;4.20;3.80;;;22.30;70.10;;;;;;6160006;23;20161;-85
2022/08/24 02:00:46;;;;;;;4.22;3.83;;;22.30;70.20;;;;;;6159874;23;20213;-85
2022/08/24 02:03:12;;;;;;;4.00;3.65;;;22.20;70.10;;;;;;6134889;23;20209;-85
2022/08/24 02:05:38;;;;;;;3.95;3.60;;;22.30;70.10;;;;;;6159776;23;20135;-86
2022/08/24 02:08:05;;;;;;;3.50;3.20;;;22.30;70.10;;;;;;6159478;23;20296;-85
2022/08/24 02:10:31;;;;;;;3.80;3.50;;;22.30;70.20;;;;;;6159366;23;20277;-85
2022/08/24 02:12:57;;;;;;;4.20;3.80;;;22.30;70.20;;;;;;6159424;23;20131;-85
2022/08/24 02:15:26;;;;;;;3.65;3.35;;;22.30;70.10;;;;;;6186065;23;20141;-85
2022/08/24 02:17:53;;;;;;;3.80;3.50;;;22.30;70.10;;;;;;6159404;23;20139;-86
2022/08/24 02:20:20;;;;;;;3.90;3.60;;;22.30;70.10;;;;;;6134725;23;20698;-86
2022/08/24 02:22:46;;;;;;;4.00;3.60;;;22.30;70.10;;;;;;6160108;23;20135;-86
2022/08/24 02:25:13;;;;;;;3.78;3.47;;;22.20;70.10;;;;;;6159249;23;20689;-86
2022/08/24 02:27:39;;;;;;;4.05;3.70;;;22.30;70.10;;;;;;6109920;23;20509;-86
2022/08/24 02:30:05;;;;;;;3.85;3.50;;;22.30;70.10;;;;;;6159654;23;20131;-86
2022/08/24 02:32:31;;;;;;;3.83;3.50;;;22.30;70.10;;;;;;6159172;23;20147;-86
2022/08/24 02:34:56;;;;;;;3.90;3.50;;;22.30;70.10;;;;;;6134633;23;20229;-85
2022/08/24 02:37:22;;;;;;;3.85;3.47;;;22.30;70.10;;;;;;6159366;23;20189;-86
2022/08/24 02:39:48;;;;;;;4.00;3.60;;;22.30;70.10;;;;;;6159334;23;20176;-86
2022/08/24 02:42:15;;;;;;;4.10;3.70;;;22.30;70.10;;;;;;6135065;23;20151;-86
2022/08/24 02:44:40;;;;;;;3.88;3.50;;;22.30;70.10;;;;;;6109166;23;20155;-86
2022/08/24 02:47:06;;;;;;;4.22;3.83;;;22.30;70.10;;;;;;6158874;23;20209;-86
2022/08/24 02:49:33;;;;;;;4.15;3.70;;;22.30;70.00;;;;;;6159373;23;20135;-85
2022/08/24 02:51:59;;;;;;;4.05;3.60;;;22.30;70.10;;;;;;6111849;23;20151;-85
2022/08/24 02:54:24;;;;;;;4.30;3.90;;;22.20;70.00;;;;;;6136953;23;20200;-86
2022/08/24 02:56:50;;;;;;;3.92;3.53;;;22.30;70.10;;;;;;6137227;23;20208;-86
2022/08/24 02:59:16;;;;;;;3.70;3.40;;;22.30;70.10;;;;;;6161347;23;20151;-86
2022/08/24 03:01:42;;;;;;;3.70;3.40;;;22.20;70.00;;;;;;6136658;23;20161;-85
2022/08/24 03:04:08;;;;;;;4.07;3.67;;;22.20;70.00;;;;;;6137009;23;20150;-85
2022/08/24 03:06:33;;;;;;;3.58;3.28;;;22.30;70.10;;;;;;6137008;23;20229;-86
2022/08/24 03:08:59;;;;;;;3.67;3.38;;;22.30;70.00;;;;;;6161240;23;20155;-85
2022/08/24 03:11:25;;;;;;;3.60;3.30;;;22.20;70.00;;;;;;6136422;23;20201;-86
2022/08/24 03:13:51;;;;;;;3.70;3.40;;;22.20;70.00;;;;;;6161141;23;20138;-86
2022/08/24 03:16:18;;;;;;;4.00;3.63;;;22.30;70.00;;;;;;6160977;23;20134;-86
2022/08/24 03:18:44;;;;;;;3.67;3.38;;;22.30;70.90;;;;;;6160908;23;20158;-86
2022/08/24 03:21:10;;;;;;;3.67;3.38;;;22.20;70.00;;;;;;6161028;23;20185;-86
2022/08/24 03:23:36;;;;;;;3.75;3.45;;;22.20;70.00;;;;;;6187254;23;20135;-86
2022/08/24 03:26:02;;;;;;;3.58;3.28;;;22.20;70.00;;;;;;6160875;23;20174;-86
2022/08/24 03:28:28;;;;;;;4.07;3.67;;;22.20;70.00;;;;;;6160987;23;20138;-85
2022/08/24 03:30:53;;;;;;;4.00;3.60;;;22.20;70.00;;;;;;6160920;23;20142;-86
2022/08/24 03:33:19;;;;;;;3.80;3.50;;;22.30;70.00;;;;;;6161457;23;20157;-86
2022/08/24 03:35:45;;;;;;;4.05;3.65;;;22.20;70.00;;;;;;6161369;23;20154;-86
2022/08/24 03:38:12;;;;;;;3.58;3.28;;;22.20;69.80;;;;;;6161540;23;20154;-86
2022/08/24 03:40:39;;;;;;;3.50;3.20;;;22.30;69.90;;;;;;6137146;23;20444;-86
2022/08/24 03:43:05;;;;;;;4.18;3.78;;;22.20;69.80;;;;;;6136149;23;20233;-86
2022/08/24 03:45:31;;;;;;;3.80;3.50;;;22.20;69.90;;;;;;6160884;23;20194;-87
2022/08/24 03:47:57;;;;;;;3.55;3.25;;;22.30;70.00;;;;;;6136128;23;20471;-86
2022/08/24 03:50:24;;;;;;;4.03;3.67;;;22.30;70.00;;;;;;6160712;23;20142;-86
2022/08/24 03:52:50;;;;;;;3.58;3.28;;;22.20;70.30;;;;;;6160958;23;20159;-85
2022/08/24 03:55:16;;;;;;;3.50;3.20;;;22.30;69.80;;;;;;6136905;23;20131;-86
2022/08/24 03:57:42;;;;;;;4.25;3.50;;;22.30;69.90;;;;;;6136573;23;20233;-85
2022/08/24 04:00:09;;;;;;;3.63;3.33;;;22.30;69.80;;;;;;6160725;23;20135;-86
2022/08/24 04:02:39;;;;;;;3.65;3.33;;;22.30;69.90;;;;;;6160107;23;20131;-85
2022/08/24 04:05:06;;;;;;;4.05;3.65;;;22.30;69.90;;;;;;6161708;23;20186;-86
2022/08/24 04:07:31;;;;;;;3.60;3.30;;;22.20;69.90;;;;;;6136810;23;20174;-86
2022/08/24 04:09:57;;;;;;;4.35;3.95;;;22.20;69.90;;;;;;6160375;23;20147;-86
2022/08/24 04:12:23;;;;;;;3.65;3.35;;;22.20;69.90;;;;;;6160618;23;20166;-86
2022/08/24 04:14:51;;;;;;;4.70;3.40;;;22.20;69.90;;;;;;6135832;23;20174;-86
2022/08/24 04:17:17;;;;;;;3.30;3.00;;;22.30;69.90;;;;;;6160753;23;20204;-86
2022/08/24 04:19:56;;;;;;;3.60;3.30;;;22.30;69.90;;;;;;6161027;23;20131;-85
2022/08/24 04:22:24;;;;;;;3.75;3.20;;;22.30;69.90;;;;;;6163086;23;20131;-86
2022/08/24 04:24:50;;;;;;;3.53;3.22;;;22.30;69.80;;;;;;6160359;23;20135;-85
2022/08/24 04:27:15;;;;;;;3.53;3.22;;;22.30;69.80;;;;;;6160862;23;20641;-86
2022/08/24 04:29:42;;;;;;;3.47;3.17;;;22.20;69.70;;;;;;6160746;23;20131;-86
2022/08/24 04:32:09;;;;;;;4.00;3.60;;;22.30;69.70;;;;;;6186549;23;20182;-86
2022/08/24 04:34:35;;;;;;;3.80;3.50;;;22.30;69.80;;;;;;6110195;23;20586;-86
2022/08/24 04:37:02;;;;;;;3.45;3.15;;;22.20;69.70;;;;;;6129137;23;20603;-86
2022/08/24 04:39:29;;;;;;;3.70;3.40;;;22.20;69.60;;;;;;6105379;23;20162;-86
2022/08/24 04:41:56;;;;;;;3.53;3.22;;;22.30;69.70;;;;;;6134391;23;20598;-86
2022/08/24 04:44:23;;;;;;;3.40;3.10;;;22.30;69.50;;;;;;6057627;23;20159;-86
2022/08/24 04:46:50;;;;;;;3.50;3.20;;;22.30;69.40;;;;;;6084412;23;20448;-86
2022/08/24 04:49:15;;;;;;;3.50;3.20;;;22.30;69.20;;;;;;6160009;23;20617;-86
2022/08/24 04:51:41;;;;;;;3.70;3.40;;;22.30;69.10;;;;;;6111041;23;20154;-86
2022/08/24 04:54:09;;;;;;;3.25;2.97;;;22.30;69.00;;;;;;6160422;23;20169;-86
2022/08/24 04:56:35;;;;;;;3.60;3.30;;;22.30;68.90;;;;;;6160728;23;20135;-86
2022/08/24 04:59:01;;;;;;;3.35;3.00;;;22.40;68.90;;;;;;6186317;23;20581;-86
2022/08/24 05:01:27;;;;;;;3.00;2.80;;;22.30;68.40;;;;;;6136112;23;20177;-86
2022/08/24 05:03:53;;;;;;;3.40;3.10;;;22.30;68.40;;;;;;6110983;23;20190;-86
2022/08/24 05:06:21;;;;;;;3.08;2.78;;;22.30;68.50;;;;;;6135590;23;20145;-86
2022/08/24 05:08:46;;;;;;;3.35;3.05;;;22.40;68.20;;;;;;6135699;23;20162;-86
2022/08/24 05:11:12;;;;;;;3.50;3.20;;;22.40;68.30;;;;;;6111009;23;20486;-86
2022/08/24 05:13:38;;;;;;;3.25;2.95;;;22.40;67.80;;;;;;6134983;23;20214;-85
2022/08/24 05:16:06;;;;;;;3.30;3.00;;;22.30;68.30;;;;;;6186102;23;20201;-86
2022/08/24 05:18:32;;;;;;;3.20;2.90;;;22.30;68.40;;;;;;6111448;23;20153;-86
2022/08/24 05:20:58;;;;;;;3.45;3.15;;;22.30;67.70;;;;;;6135281;23;20150;-86
2022/08/24 05:23:24;;;;;;;4.07;2.80;;;22.30;68.00;;;;;;6135726;23;20207;-86
2022/08/24 05:25:51;;;;;;;2.70;2.50;;;22.30;67.40;;;;;;6110811;23;20170;-86
2022/08/24 05:28:17;;;;;;;2.83;2.60;;;22.40;67.10;;;;;;6159608;23;20174;-86
2022/08/24 05:30:42;;;;;;;3.00;2.70;;;22.40;67.10;;;;;;6135016;23;20185;-85
2022/08/24 05:33:08;;;;;;;3.00;2.80;;;22.40;66.90;;;;;;6159719;23;20147;-86
2022/08/24 05:35:41;;;;;;;2.70;2.50;;;22.40;66.90;;;;;;6186078;23;20181;-86
2022/08/24 05:38:08;;;;;;;2.60;2.40;;;22.40;67.40;;;;;;6135063;23;20498;-85
2022/08/24 05:40:35;;;;;;;2.72;2.53;;;22.40;66.10;;;;;;6185999;23;20141;-86
2022/08/24 05:43:03;;;;;;;2.70;2.50;;;22.50;65.80;;;;;;6159735;23;20146;-86
2022/08/24 05:45:30;;;;;;;3.17;2.88;;;22.50;65.70;;;;;;6109789;23;20150;-87
2022/08/24 05:47:57;;;;;;;2.65;2.35;;;22.50;65.70;;;;;;6159678;23;20249;-86
2022/08/24 05:50:25;;;;;;;2.85;2.63;;;22.50;65.50;;;;;;6062219;23;20205;-87
2022/08/24 05:52:52;;;;;;;2.80;2.60;;;22.50;65.30;;;;;;6085651;23;20575;-86
2022/08/24 05:55:19;;;;;;;3.22;2.92;;;22.50;65.60;;;;;;6061483;23;20522;-86
2022/08/24 05:57:44;;;;;;;2.67;2.47;;;22.50;66.00;;;;;;6061736;23;20234;-85
2022/08/24 06:00:12;;;;;;;2.45;2.25;;;22.50;65.70;;;;;;6159754;23;20182;-86
2022/08/24 06:02:38;;;;;;;3.33;2.95;;;22.50;65.00;;;;;;6086070;23;20590;-86
2022/08/24 06:05:04;;;;;;;2.90;2.67;;;22.50;65.40;;;;;;6159534;23;20142;-86
2022/08/24 06:07:30;;;;;;;2.83;2.63;;;22.50;64.90;;;;;;6159787;23;20186;-86
2022/08/24 06:09:56;;;;;;;2.70;2.50;;;22.50;65.00;;;;;;6134696;23;20534;-86
2022/08/24 06:12:22;;;;;;;2.80;2.60;;;22.50;65.10;;;;;;6159451;23;20630;-86
2022/08/24 06:14:48;;;;;;;2.97;2.60;;;22.50;65.30;;;;;;6159636;23;20281;-85
2022/08/24 06:17:14;;;;;;;2.60;2.40;;;22.50;65.30;;;;;;6159303;23;20157;-85
2022/08/24 06:19:40;;;;;;;2.42;2.22;;;22.50;65.30;;;;;;6159610;23;20188;-86
2022/08/24 06:22:06;;;;;;;2.88;2.58;;;22.50;65.10;;;;;;6159361;23;20146;-85
2022/08/24 06:27:21;;;;;;;2.70;2.42;;;22.50;64.60;;;;;;6163405;23;20194;-85
2022/08/24 06:29:51;;;;;;;2.47;2.28;;;22.50;64.90;;;;;;6160645;23;20617;-85
2022/08/24 06:32:17;;;;;;;2.90;2.67;;;22.40;64.70;;;;;;6159796;23;20145;-85
2022/08/24 06:34:42;;;;;;;2.60;2.40;;;22.50;64.90;;;;;;6160020;23;20135;-85
2022/08/24 06:37:08;;;;;;;2.60;2.40;;;22.50;64.40;;;;;;6134969;23;20204;-85
2022/08/24 06:39:34;;;;;;;2.80;2.60;;;22.50;64.20;;;;;;6134816;23;20151;-86
2022/08/24 06:41:59;;;;;;;2.88;2.58;;;22.50;64.50;;;;;;6110801;23;20209;-86
2022/08/24 06:44:25;;;;;;;3.42;2.58;;;22.50;64.30;;;;;;6160153;23;20131;-87
2022/08/24 06:46:51;;;;;;;2.53;2.33;;;22.50;63.90;;;;;;6159802;23;20263;-88
2022/08/24 06:49:20;;;;;;;2.53;2.33;;;22.50;63.50;;;;;;6101477;23;20159;-86
2022/08/24 06:51:45;;;;;;;2.50;2.30;;;22.50;63.70;;;;;;6044650;23;20603;-84
2022/08/24 06:54:11;;;;;;;2.60;2.40;;;22.50;63.90;;;;;;6045737;23;20149;-86
2022/08/24 06:56:43;;;;;;;2.78;2.47;;;22.50;64.00;;;;;;6043701;23;20158;-85
2022/08/24 06:59:09;;;;;;;2.70;2.40;;;22.50;63.50;;;;;;6019536;23;20161;-85
2022/08/24 07:01:37;;;;;;;2.40;2.20;;;22.50;64.00;;;;;;6044281;23;20253;-86
2022/08/24 07:04:03;;;;;;;2.42;2.22;;;22.40;63.90;;;;;;6022283;23;20163;-86
2022/08/24 07:06:51;;;;;;;2.65;2.45;;;22.40;63.90;;;;;;6022141;23;20189;-85
2022/08/24 07:09:17;;;;;;;3.15;2.35;;;22.40;64.10;;;;;;5984519;24;20159;-85
2022/08/24 07:11:43;;;;;;;2.67;2.40;;;22.30;63.80;;;;;;5937935;24;20155;-87
2022/08/24 07:14:09;;;;;;;2.15;1.95;;;22.30;63.70;;;;;;5938699;24;20156;-86
2022/08/24 07:16:45;;;;;;;3.30;1.98;;;22.20;63.40;;;;;;5961315;24;20234;-85
2022/08/24 07:19:11;;;;;;;3.20;2.17;;;22.20;63.30;;;;;;5988206;23;20596;-87
2022/08/24 07:21:37;;;;;;;4.15;2.28;;;22.30;63.40;;;;;;5995055;23;20162;-86
2022/08/24 07:24:03;;;;;;;4.18;2.00;;;22.20;63.00;;;;;;6043865;23;20185;-87
2022/08/24 07:26:34;;;;;;;5.35;1.90;;;22.20;62.90;;;;;;6014602;23;20157;-86
2022/08/24 07:29:04;;;;;;;2.80;2.10;;;22.30;62.80;;;;;;6049471;23;20480;-86
2022/08/24 07:31:32;;;;;;;2.25;1.88;;;22.20;62.70;;;;;;6048289;23;20142;-85
2022/08/24 07:34:00;;;;;;;3.17;2.08;;;22.30;62.60;;;;;;6106337;23;20161;-86
2022/08/24 07:36:25;;;;;;;2.40;2.20;;;22.30;62.50;;;;;;6123237;23;20155;-85
2022/08/24 07:38:52;;;;;;;2.20;2.00;;;22.30;62.60;;;;;;6160710;23;20206;-86
2022/08/24 07:41:30;;;;;;;2.55;1.92;;;22.20;62.70;;;;;;6162292;23;20127;-85
2022/08/24 07:43:56;;;;;;;4.47;2.08;;;22.20;62.70;;;;;;6087692;23;20150;-85
2022/08/24 07:46:22;;;;;;;2.33;2.00;;;22.20;62.40;;;;;;6162280;23;20190;-85
2022/08/24 07:48:55;;;;;;;5.13;2.03;;;22.30;62.10;;;;;;6138188;23;20150;-85
2022/08/24 07:51:21;;;;;;;2.10;1.92;;;22.30;62.10;;;;;;6131805;23;20553;-85
2022/08/24 07:53:50;;;;;;;2.50;1.77;;;22.30;62.00;;;;;;6132101;23;20194;-85
2022/08/24 07:56:19;;;;;;;5.35;2.10;;;22.30;62.80;;;;;;6156636;23;20154;-84
2022/08/24 07:58:45;;;;;;;5.90;2.30;;;22.30;61.80;;;;;;6157246;23;20166;-85
2022/08/24 08:01:11;;;;;;;2.28;2.08;;;22.20;62.00;;;;;;6130396;23;20148;-84
2022/08/24 08:03:37;;;;;;;2.13;1.92;;;22.30;62.00;;;;;;6154432;23;20136;-84
2022/08/24 08:06:05;;;;;;;2.17;1.98;;;22.20;61.70;;;;;;6154115;23;20155;-85
2022/08/24 08:08:33;;;;;;;3.15;1.77;;;22.20;61.50;;;;;;6154126;23;20532;-84
2022/08/24 08:11:00;;;;;;;2.28;2.00;;;22.20;61.40;;;;;;6153853;23;20175;-85
2022/08/24 08:13:30;;;;;;;5.50;2.20;;;22.20;61.40;;;;;;6154082;23;20216;-84
2022/08/24 08:16:02;;;;;;;3.08;1.58;;;22.20;61.10;;;;;;6128897;23;20155;-84
2022/08/24 08:18:31;;;;;;;3.60;1.73;;;22.20;60.70;;;;;;6081407;23;20184;-86
2022/08/24 08:21:03;;;;;;;3.67;1.83;;;22.20;60.90;;;;;;6106715;23;20642;-85
2022/08/24 08:26:19;;;;;;;3.97;1.73;;;22.20;60.50;;;;;;6111951;23;20158;-84
2022/08/24 08:28:50;;;;;;;3.28;1.65;;;22.20;60.10;;;;;;6106474;23;20461;-85
2022/08/24 08:31:16;;;;;;;2.72;1.80;;;22.20;60.30;;;;;;6083089;23;20152;-85
2022/08/24 08:33:44;;;;;;;3.15;1.83;;;22.20;59.80;;;;;;6154914;23;20228;-84
2022/08/24 08:36:14;;;;;;;3.60;1.90;;;22.20;60.00;;;;;;6130437;23;20524;-84
2022/08/24 08:38:41;;;;;;;2.28;1.60;;;22.20;59.40;;;;;;6082141;23;20546;-83
2022/08/24 08:41:41;;;;;;;3.20;1.90;;;22.20;59.40;;;;;;6131887;23;20240;-84
2022/08/24 08:44:32;;;;;;;2.30;1.58;;;22.20;59.70;;;;;;6154971;23;20266;-84
2022/08/24 08:47:36;;;;;;;5.35;1.70;;;22.30;59.60;;;;;;6157217;23;20194;-85
2022/08/24 08:50:12;;;;;;;1.92;1.80;;;22.20;59.40;;;;;;6160004;23;20162;-87
2022/08/24 08:53:08;;;;;;;3.33;1.83;;;22.30;58.90;;;;;;6160559;23;20498;-85
2022/08/24 08:55:50;;;;;;;2.03;1.55;;;22.30;58.70;;;;;;6158964;23;20237;-86
2022/08/24 08:59:00;;;;;;;1.90;1.70;;;22.40;58.50;;;;;;6162501;23;20570;-86
2022/08/24 09:01:38;;;;;;;3.58;1.85;;;22.40;58.30;;;;;;6160268;23;20170;-84
2022/08/24 09:04:16;;;;;;;4.60;1.73;;;22.40;58.70;;;;;;6054544;23;20179;-85
2022/08/24 09:07:08;;;;;;;2.78;1.60;;;22.50;58.10;;;;;;6099447;23;20180;-86
2022/08/24 09:13:38;;;;;;;2.83;1.50;;;22.50;58.80;;;;;;5981203;24;20183;-86
2022/08/24 09:16:16;;;;;;;1.95;1.75;;;22.40;59.10;;;;;;5985249;24;20235;-87
2022/08/24 09:19:18;;;;;;;2.97;1.77;;;22.50;58.40;;;;;;5982657;24;20584;-88
2022/08/24 09:22:08;;;;;;;2.15;1.80;;;22.50;58.10;;;;;;5986378;24;20186;-87
2022/08/24 09:24:54;;;;;;;2.47;1.63;;;22.60;58.70;;;;;;5983617;24;20182;-87
2022/08/24 09:27:48;;;;;;;2.88;1.80;;;22.60;57.80;;;;;;5981922;24;20535;-85
2022/08/24 09:30:18;;;;;;;2.25;1.50;;;22.50;58.30;;;;;;5981444;24;20175;-87
2022/08/24 09:32:59;;;;;;;2.70;1.63;;;22.50;58.00;;;;;;5985675;24;20234;-87
2022/08/24 09:35:50;;;;;;;4.90;1.45;;;22.50;57.90;;;;;;6021788;23;20598;-87
2022/08/24 09:38:49;;;;;;;3.70;1.73;;;22.50;58.10;;;;;;5994680;23;20161;-86
2022/08/24 09:41:49;;;;;;;1.40;1.30;;;22.60;57.70;;;;;;6018549;23;20161;-85
2022/08/24 09:44:29;;;;;;;5.45;1.70;;;22.60;57.90;;;;;;6026143;23;20157;-89
2022/08/24 09:47:28;;;;;;;4.95;2.20;;;22.60;58.00;;;;;;6025098;23;20201;-84
2022/08/24 09:50:24;;;;;;;2.92;1.85;;;22.60;58.00;;;;;;6086310;23;20200;-87
2022/08/24 09:53:28;;;;;;;4.72;1.70;;;22.60;58.00;;;;;;6117313;23;20150;-85
2022/08/24 09:55:57;;;;;;;4.03;1.95;;;22.60;57.90;;;;;;6175298;23;20154;-85
2022/08/24 09:58:56;;;;;;;2.78;1.83;;;22.60;58.00;;;;;;6165784;23;20222;-88
2022/08/24 10:02:02;;;;;;;3.40;1.75;;;22.60;57.80;;;;;;6116990;23;20158;-85
2022/08/24 10:04:35;;;;;;;2.83;1.73;;;22.70;57.60;;;;;;6148905;23;20150;-85
2022/08/24 10:07:27;;;;;;;4.10;1.73;;;22.70;57.50;;;;;;6164947;23;20632;-84
2022/08/24 10:10:12;;;;;;;2.40;2.00;;;22.70;57.60;;;;;;6091832;23;20205;-86
2022/08/24 10:12:59;;;;;;;2.10;1.58;;;22.70;57.80;;;;;;6139434;23;20297;-86
2022/08/24 10:15:48;;;;;;;3.08;1.90;;;22.70;57.90;;;;;;6147958;23;20162;-88
2022/08/24 10:18:34;;;;;;;2.78;1.90;;;22.70;58.10;;;;;;6126762;23;20531;-85
2022/08/24 10:21:34;;;;;;;3.15;2.05;;;22.60;58.10;;;;;;6092751;23;20621;-85
2022/08/24 10:24:38;;;;;;;3.53;1.70;;;22.60;58.30;;;;;;6130931;23;20212;-85
2022/08/24 10:27:53;;;;;;;1.73;1.63;;;22.60;58.00;;;;;;6115477;23;20182;-85
2022/08/24 10:30:44;;;;;;;3.60;1.80;;;22.60;57.90;;;;;;6051535;23;20154;-87
2022/08/24 10:33:48;;;;;;;2.15;1.50;;;22.60;57.80;;;;;;6073645;23;20172;-88
2022/08/24 10:36:37;;;;;;;3.72;1.80;;;22.70;58.00;;;;;;6012561;23;20234;-89
2022/08/24 10:39:44;;;;;;;1.98;1.80;;;22.60;57.90;;;;;;6051367;23;20473;-87
2022/08/24 10:45:41;;;;;;;5.13;1.80;;;22.60;57.90;;;;;;6098191;23;20162;-87
2022/08/24 10:48:42;;;;;;;3.60;1.83;;;22.60;58.00;;;;;;6072851;23;20266;-90
2022/08/24 10:51:37;;;;;;;3.97;2.10;;;22.50;58.00;;;;;;6004981;23;20233;-88
2022/08/24 10:54:12;;;;;;;2.60;1.80;;;22.60;58.20;;;;;;5995968;23;20173;-88
2022/08/24 10:57:23;;;;;;;5.15;1.85;;;22.60;58.10;;;;;;6001662;23;20160;-87
2022/08/24 11:00:33;;;;;;;;;;;;;;;;;;;;;
2022/08/24 11:03:11;;;;;;;2.83;1.65;;;22.60;58.20;;;;;;5947995;24;20282;-87
2022/08/24 11:05:47;;;;;;;3.15;1.80;;;22.70;58.10;;;;;;5941406;23;20627;-87
2022/08/24 11:08:33;;;;;;;4.03;1.70;;;22.70;57.90;;;;;;5964331;23;20224;-88
2022/08/24 11:11:07;;;;;;;5.13;1.40;;;22.70;58.00;;;;;;5931677;23;20499;-86
2022/08/24 11:13:58;;;;;;;2.55;1.73;;;22.70;57.80;;;;;;5966687;23;20252;-88
2022/08/24 11:16:32;;;;;;;6.82;1.70;;;22.70;57.80;;;;;;5948435;23;20154;-88
2022/08/24 11:19:12;;;;;;;2.92;1.80;;;22.70;57.80;;;;;;5989351;23;20158;-87
2022/08/24 11:22:00;;;;;;;2.65;1.80;;;22.70;57.80;;;;;;5939256;24;20182;-86
2022/08/24 11:24:47;;;;;;;1.60;1.50;;;22.80;57.80;;;;;;5974744;23;20158;-87
2022/08/24 11:27:18;;;;;;;4.97;1.60;;;22.80;57.70;;;;;;6015003;23;20190;-87
2022/08/24 11:30:35;;;;;;;1.90;1.70;;;22.70;57.80;;;;;;6049132;23;20257;-88
2022/08/24 11:57:34;;;;;;;2.65;1.52;;;22.90;57.40;;;;;;6111679;23;20314;-88
2022/08/24 12:00:20;;;;;;;3.00;1.85;;;22.90;57.40;;;;;;6015981;23;20591;-88
2022/08/24 12:06:45;;;;;;;;;;;;;;;;;;;;;
2022/08/24 12:14:07;;;;;;;4.70;1.77;;;23.00;57.10;;;;;;5960896;23;20183;-86
2022/08/24 12:17:40;;;;;;;3.80;1.50;;;23.00;56.90;;;;;;5974110;24;20155;-86
2022/08/24 12:20:48;;;;;;;2.95;1.38;;;22.90;57.10;;;;;;5816780;24;20160;-88
2022/08/24 12:30:26;;;;;;;2.35;1.25;;;22.80;57.10;;;;;;5601909;25;20316;-87
2022/08/24 12:36:38;;;;;;;2.53;1.23;;;23.00;56.80;;;;;;5512297;25;20640;-86
2022/08/24 12:50:51;;;;;;;;;;;;;;;;;;;;;
2022/08/24 12:53:51;;;;;;;2.67;1.30;;;23.00;56.40;;;;;;5496011;26;20381;-87
2022/08/24 12:56:51;;;;;;;3.70;1.38;;;23.10;56.10;;;;;;5579965;25;20165;-85
2022/08/24 13:00:05;;;;;;;5.97;1.30;;;23.00;56.00;;;;;;5621706;25;20310;-85
2022/08/24 13:06:19;;;;;;;1.25;1.15;;;23.00;56.10;;;;;;5732329;24;20168;-86
2022/08/24 13:09:32;;;;;;;2.53;1.45;;;22.90;55.90;;;;;;5736853;24;20196;-86
2022/08/24 13:12:42;;;;;;;2.78;1.20;;;22.90;55.70;;;;;;5781686;24;20620;-86
2022/08/24 13:15:24;;;;;;;3.92;1.50;;;23.00;55.70;;;;;;5734161;24;20175;-86
2022/08/24 13:18:11;;;;;;;2.97;1.52;;;22.90;56.40;;;;;;5724072;24;20218;-86
2022/08/24 13:25:40;;;;;;;;;;;;;;;;;;;;;
2022/08/24 14:54:06;;;;;;;1.08;1.00;;;23.10;53.70;;;;;;6184116;23;20192;-85
2022/08/24 14:57:00;;;;;;;1.73;0.90;;;23.10;53.60;;;;;;6096503;23;20156;-84
2022/08/24 14:59:44;;;;;;;1.83;1.00;;;23.10;53.60;;;;;;6049330;23;20176;-85
2022/08/24 15:02:47;;;;;;;1.50;1.00;;;23.10;53.60;;;;;;5993944;23;20158;-84
2022/08/24 15:05:30;;;;;;;1.50;1.20;;;23.10;53.70;;;;;;6006554;23;20583;-84
2022/08/24 15:08:02;;;;;;;1.20;1.10;;;23.00;53.90;;;;;;6016003;23;20178;-85
2022/08/24 15:10:52;;;;;;;2.47;1.02;;;23.10;53.80;;;;;;5980684;24;20614;-85
2022/08/24 15:13:38;;;;;;;1.38;1.10;;;23.10;53.80;;;;;;5959900;24;20219;-85
2022/08/24 15:16:26;;;;;;;1.30;1.00;;;23.10;53.70;;;;;;5896283;24;20193;-84
2022/08/24 15:19:36;;;;;;;2.92;1.10;;;23.10;53.70;;;;;;5873365;24;20174;-85
2022/08/24 15:22:26;;;;;;;1.00;0.90;;;23.10;53.60;;;;;;5923068;24;20646;-85
2022/08/24 15:25:12;;;;;;;1.20;1.00;;;23.10;53.50;;;;;;5872675;24;20495;-84
2022/08/24 15:27:49;;;;;;;1.58;0.85;;;23.20;53.50;;;;;;5840764;24;20193;-83
2022/08/24 15:30:38;;;;;;;1.33;1.10;;;23.20;53.60;;;;;;5878212;24;20164;-85
2022/08/24 15:33:17;;;;;;;1.10;1.00;;;23.20;53.40;;;;;;5864662;24;20158;-85
2022/08/24 15:36:04;;;;;;;1.10;1.00;;;23.20;53.50;;;;;;5855092;24;20593;-85
2022/08/24 15:38:54;;;;;;;0.80;0.80;;;23.20;53.40;;;;;;5876413;24;20161;-85
2022/08/24 15:41:31;;;;;;;1.65;1.08;;;23.20;53.40;;;;;;5863293;24;20195;-85
2022/08/24 15:44:10;;;;;;;1.30;0.95;;;23.20;53.30;;;;;;5880968;24;20164;-85
2022/08/24 15:46:43;;;;;;;1.40;1.00;;;23.20;53.30;;;;;;5955577;24;20183;-85
2022/08/24 15:49:23;;;;;;;0.90;0.90;;;23.30;53.10;;;;;;5947205;23;20262;-86
2022/08/24 15:52:03;;;;;;;1.75;1.10;;;23.30;53.00;;;;;;5943193;23;20166;-85
2022/08/24 15:54:56;;;;;;;2.08;1.00;;;23.30;52.90;;;;;;5991676;23;20202;-84
2022/08/24 15:57:28;;;;;;;1.23;1.13;;;23.40;53.00;;;;;;6009649;23;20154;-85
2022/08/24 16:00:05;;;;;;;2.78;1.20;;;23.30;53.00;;;;;;6062026;23;20157;-85
2022/08/24 16:02:37;;;;;;;1.25;1.15;;;23.20;53.00;;;;;;5997145;23;20173;-85
2022/08/24 16:05:17;;;;;;;0.70;0.70;;;23.20;53.10;;;;;;6044743;23;20236;-86
2022/08/24 16:08:06;;;;;;;1.10;1.00;;;23.20;53.30;;;;;;6067702;23;20215;-85
2022/08/24 16:10:59;;;;;;;1.50;0.90;;;23.20;53.40;;;;;;6043811;23;20171;-85
2022/08/24 16:13:29;;;;;;;2.03;1.05;;;23.20;53.20;;;;;;6067608;23;20142;-85